createdAt,value
2024-04-22T00:00:15.808Z,3.20
2024-04-22T00:02:51.856Z,3.10
2024-04-22T00:05:27.873Z,3.50
2024-04-22T00:08:04.593Z,3.10
2024-04-22T00:10:40.855Z,2.70
2024-04-22T00:13:18.256Z,3.10
2024-04-22T00:15:56.870Z,3.70
2024-04-22T00:18:33.331Z,3.60
2024-04-22T00:21:12.998Z,4.10
2024-04-22T00:23:49.507Z,3.30
2024-04-22T00:26:26.902Z,4.40
2024-04-22T00:29:02.517Z,3.20
2024-04-22T00:31:38.823Z,4.90
2024-04-22T00:34:19.760Z,2.50
2024-04-22T00:36:55.940Z,2.60
2024-04-22T00:39:33.114Z,2.70
2024-04-22T00:42:10.227Z,2.80
2024-04-22T00:44:46.782Z,2.80
2024-04-22T00:47:26.473Z,2.80
2024-04-22T00:50:02.352Z,2.60
2024-04-22T00:52:38.741Z,3.10
2024-04-22T00:55:15.854Z,3.10
2024-04-22T00:57:53.021Z,3.40
2024-04-22T01:00:30.058Z,3.30
2024-04-22T01:03:07.401Z,2.10
2024-04-22T01:05:45.200Z,2.50
2024-04-22T01:08:21.022Z,2.80
2024-04-22T01:10:57.800Z,3.20
2024-04-22T01:13:36.321Z,2.30
2024-04-22T01:16:14.621Z,2.10
2024-04-22T01:18:55.444Z,2.80
2024-04-22T01:21:34.717Z,2.70
2024-04-22T01:24:11.632Z,2.10
2024-04-22T01:26:49.337Z,2.50
2024-04-22T01:29:25.596Z,2.50
2024-04-22T01:32:01.746Z,2.20
2024-04-22T01:34:38.542Z,1.60
2024-04-22T01:37:14.376Z,4.00
2024-04-22T01:39:50.720Z,2.20
2024-04-22T01:42:27.250Z,1.90
2024-04-22T01:45:02.898Z,2.70
2024-04-22T01:47:40.061Z,2.30
2024-04-22T01:50:20.414Z,2.60
2024-04-22T01:52:58.487Z,2.30
2024-04-22T01:55:34.092Z,2.20
2024-04-22T01:58:13.452Z,2.10
2024-04-22T02:00:49.678Z,2.20
2024-04-22T02:03:27.925Z,2.70
2024-04-22T02:06:05.116Z,5.10
2024-04-22T02:08:41.387Z,2.20
2024-04-22T02:11:18.545Z,3.40
2024-04-22T02:13:54.742Z,2.70
2024-04-22T02:16:32.386Z,2.20
2024-04-22T02:19:08.584Z,3.20
2024-04-22T02:21:44.333Z,2.70
2024-04-22T02:24:21.467Z,2.40
2024-04-22T02:26:57.325Z,2.30
2024-04-22T02:29:33.684Z,2.70
2024-04-22T02:32:11.332Z,2.30
2024-04-22T02:34:47.201Z,1.60
2024-04-22T02:37:23.589Z,2.00
2024-04-22T02:39:59.637Z,3.00
2024-04-22T02:42:37.182Z,1.90
2024-04-22T02:45:14.478Z,1.80
2024-04-22T02:47:50.104Z,1.90
2024-04-22T02:50:29.244Z,2.60
2024-04-22T02:53:06.061Z,2.10
2024-04-22T02:55:42.943Z,2.30
2024-04-22T02:58:18.400Z,2.10
2024-04-22T03:00:55.913Z,2.80
2024-04-22T03:03:33.057Z,3.00
2024-04-22T03:06:10.441Z,3.10
2024-04-22T03:08:46.476Z,2.80
2024-04-22T03:11:24.680Z,3.10
2024-04-22T03:14:01.517Z,2.60
2024-04-22T03:16:38.359Z,2.80
2024-04-22T03:19:15.140Z,2.20
2024-04-22T03:21:51.824Z,1.90
2024-04-22T03:24:27.896Z,2.30
2024-04-22T03:27:05.046Z,3.00
2024-04-22T03:29:42.684Z,2.00
2024-04-22T03:32:19.527Z,2.40
2024-04-22T03:34:58.494Z,2.00
2024-04-22T03:37:35.045Z,2.30
2024-04-22T03:40:15.220Z,3.60
2024-04-22T03:42:50.928Z,4.00
2024-04-22T03:45:27.234Z,2.60
2024-04-22T03:48:23.525Z,2.70
2024-04-22T03:51:01.116Z,2.60
2024-04-22T03:53:36.690Z,3.50
2024-04-22T03:56:13.973Z,2.80
2024-04-22T03:58:50.559Z,2.50
2024-04-22T04:01:26.752Z,2.60
2024-04-22T04:04:06.016Z,2.40
2024-04-22T04:06:42.053Z,2.80
2024-04-22T04:09:17.648Z,2.70
2024-04-22T04:11:53.976Z,2.40
2024-04-22T04:14:29.958Z,3.10
2024-04-22T04:17:06.396Z,2.20
2024-04-22T04:19:43.684Z,2.40
2024-04-22T04:22:19.512Z,1.90
2024-04-22T04:24:58.145Z,2.00
2024-04-22T04:27:33.882Z,2.00
2024-04-22T04:30:15.912Z,2.60
2024-04-22T04:32:52.032Z,1.80
2024-04-22T04:35:29.653Z,2.40
2024-04-22T04:38:05.907Z,2.40
2024-04-22T04:40:41.748Z,2.40
2024-04-22T04:43:18.421Z,1.70
2024-04-22T04:45:55.004Z,2.20
2024-04-22T04:48:32.277Z,2.40
2024-04-22T04:51:20.255Z,1.80
2024-04-22T04:53:57.051Z,2.00
2024-04-22T04:56:32.995Z,2.20
2024-04-22T04:59:09.260Z,2.40
2024-04-22T05:01:45.402Z,2.20
2024-04-22T05:04:21.120Z,2.50
2024-04-22T05:06:57.522Z,1.60
2024-04-22T05:09:33.881Z,2.50
2024-04-22T05:12:12.092Z,3.30
2024-04-22T05:14:51.045Z,2.60
2024-04-22T05:17:26.643Z,2.50
2024-04-22T05:20:03.441Z,3.00
2024-04-22T05:22:43.188Z,3.00
2024-04-22T05:25:20.698Z,2.50
2024-04-22T05:27:59.604Z,2.90
2024-04-22T05:30:36.513Z,3.20
2024-04-22T05:33:29.663Z,2.80
2024-04-22T05:36:13.524Z,3.30
2024-04-22T05:38:51.699Z,2.60
2024-04-22T05:41:27.629Z,2.60
2024-04-22T05:44:03.146Z,2.90
2024-04-22T05:46:43.725Z,3.50
2024-04-22T05:49:23.246Z,2.60
2024-04-22T05:52:04.519Z,3.50
2024-04-22T05:54:41.645Z,3.20
2024-04-22T05:57:17.403Z,4.50
2024-04-22T05:59:54.307Z,4.50
2024-04-22T06:02:30.778Z,4.70
2024-04-22T06:05:12.044Z,4.00
2024-04-22T06:07:48.397Z,2.70
2024-04-22T06:10:27.475Z,4.50
2024-04-22T06:13:03.682Z,3.20
2024-04-22T06:15:39.607Z,3.90
2024-04-22T06:18:15.023Z,3.50
2024-04-22T06:20:51.392Z,3.70
2024-04-22T06:23:30.311Z,3.40
2024-04-22T06:26:12.767Z,3.70
2024-04-22T06:28:47.631Z,4.20
2024-04-22T06:31:24.778Z,4.50
2024-04-22T06:34:00.702Z,3.00
2024-04-22T06:36:38.883Z,4.10
2024-04-22T06:39:15.041Z,4.00
2024-04-22T06:41:51.386Z,3.60
2024-04-22T06:44:27.783Z,4.80
2024-04-22T06:47:04.473Z,4.10
2024-04-22T06:49:43.105Z,4.40
2024-04-22T06:52:19.447Z,4.00
2024-04-22T06:54:56.711Z,4.30
2024-04-22T06:57:32.572Z,4.90
2024-04-22T07:00:11.956Z,5.10
2024-04-22T07:02:52.125Z,5.40
2024-04-22T07:05:29.726Z,4.80
2024-04-22T07:08:08.548Z,4.00
2024-04-22T07:10:44.745Z,3.90
2024-04-22T07:13:22.400Z,3.80
2024-04-22T07:15:57.692Z,5.00
2024-04-22T07:18:33.444Z,4.10
2024-04-22T07:21:10.140Z,4.50
2024-04-22T07:23:45.531Z,4.40
2024-04-22T07:26:22.277Z,5.30
2024-04-22T07:29:02.523Z,4.40
2024-04-22T07:31:41.887Z,5.20
2024-04-22T07:34:21.516Z,3.80
2024-04-22T07:37:12.473Z,3.40
2024-04-22T07:39:55.380Z,4.70
2024-04-22T07:42:32.016Z,4.90
2024-04-22T07:45:12.491Z,4.90
2024-04-22T07:47:48.786Z,4.90
2024-04-22T07:50:26.066Z,5.10
2024-04-22T07:53:07.298Z,6.10
2024-04-22T07:55:48.625Z,4.70
2024-04-22T07:58:28.914Z,4.00
2024-04-22T08:01:08.256Z,4.60
2024-04-22T08:03:51.286Z,3.70
2024-04-22T08:06:37.191Z,5.00
2024-04-22T08:09:13.753Z,4.00
2024-04-22T08:11:49.983Z,3.90
2024-04-22T08:14:26.133Z,4.60
2024-04-22T08:17:03.930Z,4.50
2024-04-22T08:19:40.126Z,5.00
2024-04-22T08:22:18.498Z,5.00
2024-04-22T08:24:54.741Z,5.90
2024-04-22T08:27:34.174Z,4.90
2024-04-22T08:30:13.489Z,4.00
2024-04-22T08:32:49.212Z,6.00
2024-04-22T08:35:26.583Z,5.40
2024-04-22T08:38:03.081Z,4.30
2024-04-22T08:40:47.237Z,6.00
2024-04-22T08:43:24.727Z,4.60
2024-04-22T08:46:01.873Z,4.30
2024-04-22T08:48:38.428Z,4.60
2024-04-22T08:51:15.065Z,4.40
2024-04-22T08:53:51.364Z,7.10
2024-04-22T08:56:28.264Z,4.30
2024-04-22T08:59:11.794Z,4.30
2024-04-22T09:02:00.044Z,5.20
2024-04-22T09:04:37.037Z,4.70
2024-04-22T09:07:23.889Z,5.10
2024-04-22T09:10:27.018Z,7.10
2024-04-22T09:13:04.042Z,3.80
2024-04-22T09:15:40.529Z,3.60
2024-04-22T09:18:21.814Z,6.00
2024-04-22T09:21:07.488Z,4.60
2024-04-22T09:23:44.512Z,3.20
2024-04-22T09:26:23.911Z,4.90
2024-04-22T09:29:06.073Z,6.10
2024-04-22T09:31:47.930Z,4.00
2024-04-22T09:34:29.448Z,4.60
2024-04-22T09:37:08.174Z,3.90
2024-04-22T09:39:47.398Z,3.50
2024-04-22T09:42:25.933Z,3.70
2024-04-22T09:45:02.612Z,4.00
2024-04-22T09:47:40.847Z,3.40
2024-04-22T09:50:16.918Z,3.70
2024-04-22T09:52:57.887Z,4.10
2024-04-22T09:55:37.958Z,3.80
2024-04-22T09:58:18.509Z,3.60
2024-04-22T10:00:54.848Z,3.60
2024-04-22T10:03:32.766Z,4.70
2024-04-22T10:06:12.753Z,4.20
2024-04-22T10:08:49.956Z,6.60
2024-04-22T10:11:27.180Z,4.00
2024-04-22T10:14:15.932Z,5.90
2024-04-22T10:17:04.832Z,4.80
2024-04-22T10:19:42.554Z,4.60
2024-04-22T10:22:22.021Z,4.50
2024-04-22T10:24:59.024Z,5.20
2024-04-22T10:27:34.324Z,6.00
2024-04-22T10:30:15.144Z,5.80
2024-04-22T10:32:50.926Z,4.50
2024-04-22T10:35:26.749Z,6.30
2024-04-22T10:38:04.111Z,5.10
2024-04-22T10:40:41.009Z,4.40
2024-04-22T10:43:19.217Z,5.20
2024-04-22T10:45:55.271Z,5.80
2024-04-22T10:48:32.922Z,5.20
2024-04-22T10:51:09.667Z,5.50
2024-04-22T10:53:47.202Z,8.30
2024-04-22T10:56:23.758Z,6.70
2024-04-22T10:59:00.365Z,4.80
2024-04-22T11:01:40.575Z,4.40
2024-04-22T11:04:16.859Z,3.80
2024-04-22T11:06:53.944Z,7.90
2024-04-22T11:09:29.925Z,4.60
2024-04-22T11:12:07.129Z,5.60
2024-04-22T11:14:46.236Z,6.30
2024-04-22T11:17:27.729Z,6.70
2024-04-22T11:20:16.146Z,5.70
2024-04-22T11:22:51.802Z,6.50
2024-04-22T11:25:28.471Z,5.60
2024-04-22T11:28:04.632Z,6.00
2024-04-22T11:30:42.324Z,4.60
2024-04-22T11:33:18.508Z,4.50
2024-04-22T11:36:00.553Z,5.20
2024-04-22T11:38:39.956Z,5.20
2024-04-22T11:41:19.908Z,6.30
2024-04-22T11:43:56.686Z,5.50
2024-04-22T11:46:34.393Z,4.70
2024-04-22T11:49:10.620Z,4.70
2024-04-22T11:51:47.423Z,6.10
2024-04-22T11:54:23.764Z,4.30
2024-04-22T11:56:59.759Z,5.30
2024-04-22T11:59:35.735Z,5.20
2024-04-22T12:02:13.659Z,4.20
2024-04-22T12:04:50.593Z,4.60
2024-04-22T12:07:27.282Z,5.00
2024-04-22T12:10:02.749Z,4.70
2024-04-22T12:12:38.264Z,4.00
2024-04-22T12:15:15.517Z,4.40
2024-04-22T12:17:54.642Z,5.10
2024-04-22T12:20:30.740Z,4.50
2024-04-22T12:23:07.309Z,4.10
2024-04-22T12:25:43.322Z,5.50
2024-04-22T12:28:22.363Z,4.40
2024-04-22T12:31:00.026Z,5.20
2024-04-22T12:33:35.540Z,6.00
2024-04-22T12:36:15.247Z,5.70
2024-04-22T12:38:53.130Z,5.10
2024-04-22T12:41:28.282Z,4.20
2024-04-22T12:44:06.813Z,5.40
2024-04-22T12:47:03.852Z,4.00
2024-04-22T12:49:56.197Z,4.10
2024-04-22T12:52:32.093Z,3.70
2024-04-22T12:55:09.825Z,4.10
2024-04-22T12:57:47.105Z,4.30
2024-04-22T13:00:25.299Z,4.20
2024-04-22T13:03:01.771Z,3.60
2024-04-22T13:05:38.294Z,4.20
2024-04-22T13:08:15.514Z,3.60
2024-04-22T13:10:51.733Z,3.50
2024-04-22T13:13:30.348Z,3.20
2024-04-22T13:16:07.753Z,4.20
2024-04-22T13:18:44.988Z,3.30
2024-04-22T13:21:21.645Z,3.00
2024-04-22T13:23:58.405Z,3.10
2024-04-22T13:26:33.837Z,3.30
2024-04-22T13:29:09.781Z,4.40
2024-04-22T13:31:52.774Z,3.90
2024-04-22T13:34:30.593Z,3.70
2024-04-22T13:37:07.707Z,5.90
2024-04-22T13:39:44.273Z,3.90
2024-04-22T13:42:20.613Z,4.00
2024-04-22T13:44:56.236Z,3.40
2024-04-22T13:47:31.838Z,3.20
2024-04-22T13:50:08.028Z,3.70
2024-04-22T13:52:45.379Z,3.40
2024-04-22T13:55:21.347Z,3.60
2024-04-22T13:57:57.421Z,2.90
2024-04-22T14:00:34.690Z,3.60
2024-04-22T14:03:11.198Z,2.90
2024-04-22T14:05:46.510Z,2.70
2024-04-22T14:08:22.985Z,3.50
2024-04-22T14:11:01.482Z,6.00
2024-04-22T14:13:37.070Z,3.20
2024-04-22T14:16:15.947Z,3.00
2024-04-22T14:18:51.816Z,3.40
2024-04-22T14:21:27.357Z,3.40
2024-04-22T14:24:06.151Z,3.40
2024-04-22T14:26:43.590Z,3.00
2024-04-22T14:29:20.466Z,3.00
2024-04-22T14:31:57.483Z,3.40
2024-04-22T14:34:33.337Z,3.70
2024-04-22T14:37:09.431Z,4.50
2024-04-22T14:39:46.340Z,3.70
2024-04-22T14:42:24.214Z,4.20
2024-04-22T14:45:00.594Z,4.20
2024-04-22T14:47:36.931Z,3.40
2024-04-22T14:50:14.365Z,2.80
2024-04-22T14:52:52.781Z,2.90
2024-04-22T14:55:29.077Z,3.00
2024-04-22T14:58:04.707Z,3.00
2024-04-22T15:00:40.084Z,3.50
2024-04-22T15:03:18.732Z,3.00
2024-04-22T15:05:55.116Z,2.50
2024-04-22T15:08:32.586Z,4.10
2024-04-22T15:11:12.113Z,4.00
2024-04-22T15:13:49.153Z,2.60
2024-04-22T15:16:24.665Z,3.50
2024-04-22T15:19:00.665Z,2.80
2024-04-22T15:21:36.509Z,2.90
2024-04-22T15:24:15.376Z,2.80
2024-04-22T15:26:51.228Z,3.40
2024-04-22T15:29:30.002Z,3.10
2024-04-22T15:32:09.473Z,2.40
2024-04-22T15:34:47.739Z,3.30
2024-04-22T15:37:24.292Z,3.40
2024-04-22T15:40:00.330Z,1.90
2024-04-22T15:42:36.319Z,2.20
2024-04-22T15:45:16.144Z,1.70
2024-04-22T15:47:52.730Z,2.40
2024-04-22T15:50:28.589Z,2.60
2024-04-22T15:53:06.050Z,2.30
2024-04-22T15:55:41.732Z,1.80
2024-04-22T15:58:17.550Z,2.60
2024-04-22T16:00:57.271Z,1.90
2024-04-22T16:03:34.072Z,2.10
2024-04-22T16:06:10.371Z,1.90
2024-04-22T16:08:46.176Z,2.20
2024-04-22T16:11:23.125Z,2.60
2024-04-22T16:14:01.472Z,2.80
2024-04-22T16:16:38.537Z,2.50
2024-04-22T16:19:14.087Z,1.20
2024-04-22T16:21:49.789Z,1.70
2024-04-22T16:24:25.809Z,1.80
2024-04-22T16:27:01.691Z,2.00
2024-04-22T16:29:37.174Z,2.30
2024-04-22T16:32:14.633Z,2.40
2024-04-22T16:34:50.443Z,2.40
2024-04-22T16:37:27.809Z,2.00
2024-04-22T16:40:04.790Z,2.60
2024-04-22T16:42:40.410Z,2.40
2024-04-22T16:45:17.536Z,2.10
2024-04-22T16:47:53.411Z,1.80
2024-04-22T16:50:29.540Z,1.90
2024-04-22T16:53:06.847Z,2.30
2024-04-22T16:55:41.878Z,2.20
2024-04-22T16:58:18.193Z,2.30
2024-04-22T17:00:56.944Z,2.50
2024-04-22T17:03:32.511Z,2.40
2024-04-22T17:06:11.386Z,2.60
2024-04-22T17:08:47.735Z,1.60
2024-04-22T17:11:24.346Z,1.70
2024-04-22T17:14:03.870Z,1.70
2024-04-22T17:16:41.040Z,2.10
2024-04-22T17:19:17.225Z,1.90
2024-04-22T17:21:53.832Z,1.70
2024-04-22T17:24:29.093Z,1.90
2024-04-22T17:27:04.879Z,2.30
2024-04-22T17:29:42.453Z,2.80
2024-04-22T17:32:18.776Z,2.30
2024-04-22T17:34:55.098Z,2.90
2024-04-22T17:37:30.964Z,2.20
2024-04-22T17:40:14.730Z,1.50
2024-04-22T17:42:54.588Z,2.10
2024-04-22T17:45:31.647Z,3.10
2024-04-22T17:48:13.963Z,2.20
2024-04-22T17:50:52.119Z,1.90
2024-04-22T17:53:30.496Z,2.40
2024-04-22T17:56:08.488Z,2.50
2024-04-22T17:58:45.000Z,2.00
2024-04-22T18:01:21.517Z,1.70
2024-04-22T18:03:58.392Z,1.90
2024-04-22T18:06:34.075Z,2.30
2024-04-22T18:09:20.642Z,1.80
2024-04-22T18:11:56.452Z,2.10
2024-04-22T18:14:32.184Z,2.60
2024-04-22T18:17:09.696Z,1.90
2024-04-22T18:19:46.676Z,3.10
2024-04-22T18:22:27.759Z,1.80
2024-04-22T18:25:06.638Z,2.80
2024-04-22T18:27:42.152Z,3.00
2024-04-22T18:30:21.210Z,2.50
2024-04-22T18:32:56.463Z,2.40
2024-04-22T18:35:31.906Z,2.20
2024-04-22T18:38:07.973Z,2.60
2024-04-22T18:40:43.968Z,2.30
2024-04-22T18:43:20.258Z,1.80
2024-04-22T18:45:55.803Z,1.80
2024-04-22T18:48:31.203Z,3.50
2024-04-22T18:51:07.063Z,2.10
2024-04-22T18:53:43.074Z,2.10
2024-04-22T18:56:19.064Z,2.00
2024-04-22T18:58:55.107Z,2.60
2024-04-22T19:01:30.374Z,2.20
2024-04-22T19:04:05.968Z,1.90
2024-04-22T19:06:41.411Z,1.70
2024-04-22T19:09:16.798Z,1.50
2024-04-22T19:11:53.041Z,2.00
2024-04-22T19:14:29.947Z,1.50
2024-04-22T19:17:06.378Z,1.90
2024-04-22T19:19:41.957Z,1.80
2024-04-22T19:22:17.277Z,2.00
2024-04-22T19:24:53.490Z,1.80
2024-04-22T19:27:30.342Z,2.00
2024-04-22T19:30:05.926Z,2.70
2024-04-22T19:32:42.422Z,3.20
2024-04-22T19:35:18.100Z,2.00
2024-04-22T19:37:54.418Z,1.80
2024-04-22T19:40:31.367Z,3.30
2024-04-22T19:43:05.784Z,2.90
2024-04-22T19:45:41.533Z,2.70
2024-04-22T19:48:17.418Z,2.30
2024-04-22T19:50:53.408Z,2.40
2024-04-22T19:53:29.393Z,2.30
2024-04-22T19:56:06.865Z,3.00
2024-04-22T19:58:43.779Z,1.80
2024-04-22T20:01:20.097Z,1.90
2024-04-22T20:03:55.389Z,2.20
2024-04-22T20:06:31.166Z,2.60
2024-04-22T20:09:06.761Z,1.80
2024-04-22T20:11:42.198Z,2.50
2024-04-22T20:14:17.730Z,1.50
2024-04-22T20:17:10.897Z,1.90
2024-04-22T20:19:47.678Z,1.40
2024-04-22T20:22:22.799Z,1.70
2024-04-22T20:25:00.487Z,2.70
2024-04-22T20:27:36.683Z,2.20
2024-04-22T20:30:15.687Z,2.30
2024-04-22T20:32:54.771Z,2.40
2024-04-22T20:35:31.728Z,2.60
2024-04-22T20:38:09.062Z,2.60
2024-04-22T20:40:44.702Z,1.90
2024-04-22T20:43:20.512Z,1.70
2024-04-22T20:45:56.238Z,2.60
2024-04-22T20:48:33.552Z,2.10
2024-04-22T20:51:09.664Z,2.20
2024-04-22T20:53:45.508Z,2.20
2024-04-22T20:56:21.803Z,2.00
2024-04-22T20:58:58.359Z,1.60
2024-04-22T21:01:36.624Z,1.50
2024-04-22T21:04:12.325Z,1.40
2024-04-22T21:06:47.555Z,1.80
2024-04-22T21:09:22.708Z,1.60
2024-04-22T21:11:59.192Z,2.20
2024-04-22T21:14:35.532Z,1.50
2024-04-22T21:17:11.053Z,1.30
2024-04-22T21:19:47.666Z,1.40
2024-04-22T21:22:23.911Z,1.40
2024-04-22T21:24:59.206Z,1.50
2024-04-22T21:27:34.595Z,1.90
2024-04-22T21:30:17.109Z,2.40
2024-04-22T21:33:17.309Z,2.70
2024-04-22T21:35:54.941Z,1.70
2024-04-22T21:38:30.542Z,1.80
2024-04-22T21:41:07.756Z,2.10
2024-04-22T21:43:44.105Z,1.50
2024-04-22T21:46:20.470Z,1.70
2024-04-22T21:48:55.780Z,1.50
2024-04-22T21:51:32.627Z,1.30
2024-04-22T21:54:10.144Z,1.20
2024-04-22T21:56:39.192Z,1.30
2024-04-22T22:00:05.898Z,1.10
2024-04-22T22:03:31.387Z,1.30
2024-04-22T22:06:57.584Z,1.40
2024-04-22T22:09:38.184Z,1.20
2024-04-22T22:12:13.660Z,1.30
2024-04-22T22:14:49.499Z,1.00
2024-04-22T22:17:24.417Z,1.40
2024-04-22T22:20:00.348Z,1.30
2024-04-22T22:22:36.219Z,1.30
2024-04-22T22:25:14.421Z,1.40
2024-04-22T22:27:52.217Z,1.20
2024-04-22T22:30:28.272Z,3.30
2024-04-22T22:33:04.352Z,5.00
2024-04-22T22:35:40.541Z,1.70
2024-04-22T22:38:16.006Z,1.10
2024-04-22T22:40:51.386Z,1.50
2024-04-22T22:43:26.993Z,1.10
2024-04-22T22:46:02.644Z,1.30
2024-04-22T22:48:38.291Z,1.30
2024-04-22T22:51:15.084Z,1.30
2024-04-22T22:53:51.921Z,1.20
2024-04-22T22:56:28.827Z,1.10
2024-04-22T22:59:04.823Z,1.20
2024-04-22T23:01:40.536Z,1.30
2024-04-22T23:04:16.047Z,1.40
2024-04-22T23:06:51.800Z,1.20
2024-04-22T23:09:28.238Z,1.30
2024-04-22T23:12:03.661Z,1.40
2024-04-22T23:14:40.101Z,1.10
2024-04-22T23:17:16.007Z,1.30
2024-04-22T23:19:51.447Z,2.30
2024-04-22T23:22:26.986Z,1.00
2024-04-22T23:25:02.627Z,1.10
2024-04-22T23:27:39.541Z,1.00
2024-04-22T23:30:19.446Z,1.20
2024-04-22T23:32:56.143Z,1.10
2024-04-22T23:35:32.155Z,1.20
2024-04-22T23:38:07.980Z,1.20
2024-04-22T23:40:43.519Z,1.80
2024-04-22T23:43:19.331Z,1.20
2024-04-22T23:45:55.523Z,3.60
2024-04-22T23:48:31.196Z,6.10
2024-04-22T23:51:09.329Z,6.50
2024-04-22T23:53:44.574Z,8.20
2024-04-22T23:56:19.802Z,8.60
2024-04-22T23:58:55.479Z,9.40
